createdAt,value
2019-02-19T00:01:53.415Z,35.60
2019-02-19T00:04:22.662Z,41.67
2019-02-19T00:06:51.959Z,37.20
2019-02-19T00:09:21.139Z,39.27
2019-02-19T00:11:50.480Z,42.50
2019-02-19T00:14:19.753Z,36.40
2019-02-19T00:16:49.070Z,39.40
2019-02-19T00:19:18.399Z,43.50
2019-02-19T00:21:47.686Z,48.33
2019-02-19T00:24:16.998Z,41.47
2019-02-19T00:26:46.336Z,34.57
2019-02-19T00:29:15.598Z,39.63
2019-02-19T00:31:44.919Z,39.67
2019-02-19T00:34:14.226Z,41.03
2019-02-19T00:36:43.528Z,40.73
2019-02-19T00:39:12.842Z,40.03
2019-02-19T00:41:42.124Z,43.97
2019-02-19T00:44:11.394Z,43.80
2019-02-19T00:46:40.616Z,41.47
2019-02-19T00:49:09.812Z,41.23
2019-02-19T00:51:39.018Z,37.33
2019-02-19T00:54:08.291Z,39.67
2019-02-19T00:56:37.570Z,41.77
2019-02-19T00:59:06.786Z,40.83
2019-02-19T01:01:36.006Z,40.13
2019-02-19T01:04:05.305Z,38.97
2019-02-19T01:06:34.611Z,37.00
2019-02-19T01:09:05.524Z,39.43
2019-02-19T01:11:34.822Z,37.50
2019-02-19T01:14:04.148Z,38.37
2019-02-19T01:16:33.340Z,40.60
2019-02-19T01:19:02.601Z,40.13
2019-02-19T01:21:31.806Z,37.27
2019-02-19T01:24:01.048Z,43.80
2019-02-19T01:26:30.322Z,39.23
2019-02-19T01:28:59.562Z,43.43
2019-02-19T01:31:28.950Z,40.77
2019-02-19T01:33:58.232Z,42.30
2019-02-19T01:36:27.587Z,42.13
2019-02-19T01:38:56.834Z,39.83
2019-02-19T01:41:26.082Z,44.33
2019-02-19T01:43:55.361Z,41.57
2019-02-19T01:46:24.727Z,39.63
2019-02-19T01:48:54.074Z,37.73
2019-02-19T01:51:23.363Z,44.00
2019-02-19T01:53:52.590Z,40.23
2019-02-19T01:56:21.890Z,38.80
2019-02-19T01:58:51.067Z,36.73
2019-02-19T02:01:20.344Z,35.90
2019-02-19T02:03:49.718Z,38.37
2019-02-19T02:06:18.900Z,36.83
2019-02-19T02:08:48.104Z,34.27
2019-02-19T02:11:17.423Z,35.33
2019-02-19T02:13:46.668Z,39.37
2019-02-19T02:16:15.929Z,36.50
2019-02-19T02:18:45.217Z,34.43
2019-02-19T02:21:14.472Z,33.60
2019-02-19T02:23:43.732Z,36.07
2019-02-19T02:26:13.117Z,34.90
2019-02-19T02:28:42.370Z,34.93
2019-02-19T02:31:11.574Z,34.27
2019-02-19T02:33:40.812Z,32.03
2019-02-19T02:36:10.011Z,33.93
2019-02-19T02:38:39.251Z,36.90
2019-02-19T02:41:08.720Z,30.80
2019-02-19T02:43:38.037Z,31.97
2019-02-19T02:46:07.213Z,31.70
2019-02-19T02:48:36.535Z,28.90
2019-02-19T02:51:05.891Z,36.53
2019-02-19T02:53:35.180Z,33.17
2019-02-19T02:56:04.563Z,28.20
2019-02-19T02:58:33.840Z,32.33
2019-02-19T03:01:03.185Z,33.57
2019-02-19T03:03:32.491Z,30.33
2019-02-19T03:06:11.100Z,32.63
2019-02-19T03:08:40.322Z,29.37
2019-02-19T03:11:09.534Z,34.03
2019-02-19T03:13:38.813Z,29.33
2019-02-19T03:16:08.137Z,30.30
2019-02-19T03:18:37.451Z,35.40
2019-02-19T03:21:06.726Z,30.63
2019-02-19T03:23:36.076Z,33.20
2019-02-19T03:26:05.440Z,30.97
2019-02-19T03:28:34.775Z,31.97
2019-02-19T03:31:04.112Z,29.13
2019-02-19T03:33:33.441Z,33.10
2019-02-19T03:36:02.733Z,29.50
2019-02-19T03:38:32.094Z,29.83
2019-02-19T03:41:01.378Z,30.13
2019-02-19T03:43:30.673Z,29.13
2019-02-19T03:45:59.820Z,32.87
2019-02-19T03:48:29.091Z,37.97
2019-02-19T03:50:58.247Z,32.30
2019-02-19T03:53:27.528Z,29.10
2019-02-19T03:55:56.725Z,32.43
2019-02-19T03:58:26.047Z,29.00
2019-02-19T04:00:55.249Z,30.73
2019-02-19T04:03:24.621Z,32.20
2019-02-19T04:05:53.932Z,30.27
2019-02-19T04:08:23.174Z,27.70
2019-02-19T04:10:52.518Z,30.13
2019-02-19T04:13:21.840Z,27.77
2019-02-19T04:15:51.200Z,29.57
2019-02-19T04:18:20.406Z,29.87
2019-02-19T04:20:49.635Z,29.20
2019-02-19T04:23:18.834Z,29.43
2019-02-19T04:25:48.121Z,26.03
2019-02-19T04:28:17.312Z,27.67
2019-02-19T04:30:46.539Z,28.50
2019-02-19T04:33:15.933Z,28.10
2019-02-19T04:35:45.259Z,33.20
2019-02-19T04:38:14.520Z,28.90
2019-02-19T04:40:43.739Z,30.10
2019-02-19T04:43:13.046Z,33.90
2019-02-19T04:45:42.203Z,28.50
2019-02-19T04:48:11.509Z,30.57
2019-02-19T04:50:40.693Z,25.77
2019-02-19T04:53:10.023Z,25.20
2019-02-19T04:55:39.258Z,25.33
2019-02-19T04:58:08.525Z,27.93
2019-02-19T05:00:37.767Z,22.53
2019-02-19T05:03:07.110Z,24.47
2019-02-19T05:05:36.367Z,28.00
2019-02-19T05:08:05.552Z,24.53
2019-02-19T05:10:34.816Z,30.13
2019-02-19T05:13:04.133Z,25.70
2019-02-19T05:15:33.571Z,27.90
2019-02-19T05:18:02.835Z,23.00
2019-02-19T05:20:32.203Z,28.53
2019-02-19T05:23:01.509Z,22.43
2019-02-19T05:25:30.687Z,24.47
2019-02-19T05:27:59.993Z,25.13
2019-02-19T05:30:29.156Z,26.23
2019-02-19T05:32:58.463Z,23.87
2019-02-19T05:35:27.817Z,24.57
2019-02-19T05:37:57.128Z,25.77
2019-02-19T05:40:26.417Z,23.27
2019-02-19T05:42:55.655Z,25.20
2019-02-19T05:45:24.999Z,25.80
2019-02-19T05:47:54.235Z,24.20
2019-02-19T05:50:23.467Z,27.13
2019-02-19T05:52:52.726Z,25.43
2019-02-19T05:55:21.969Z,26.87
2019-02-19T05:57:51.232Z,26.10
2019-02-19T06:00:20.496Z,28.47
2019-02-19T06:02:49.848Z,26.67
2019-02-19T06:05:19.062Z,23.97
2019-02-19T06:07:48.310Z,22.10
2019-02-19T06:10:17.561Z,27.30
2019-02-19T06:12:46.807Z,24.17
2019-02-19T06:15:16.123Z,20.70
2019-02-19T06:17:45.383Z,20.90
2019-02-19T06:20:14.739Z,20.27
2019-02-19T06:22:43.987Z,24.00
2019-02-19T06:25:13.249Z,20.10
2019-02-19T06:27:42.627Z,27.00
2019-02-19T06:30:12.951Z,22.43
2019-02-19T06:32:42.241Z,21.00
2019-02-19T06:35:11.567Z,25.73
2019-02-19T06:37:40.855Z,25.20
2019-02-19T06:40:21.822Z,21.03
2019-02-19T06:42:51.181Z,21.60
2019-02-19T06:45:20.484Z,23.83
2019-02-19T06:47:49.710Z,24.13
2019-02-19T06:50:19.112Z,21.07
2019-02-19T06:52:48.378Z,22.07
2019-02-19T06:55:17.675Z,22.70
2019-02-19T06:57:46.886Z,22.17
2019-02-19T07:00:16.117Z,20.27
2019-02-19T07:02:56.867Z,17.97
2019-02-19T07:05:26.279Z,19.37
2019-02-19T07:07:55.639Z,17.10
2019-02-19T07:10:24.855Z,18.70
2019-02-19T07:12:54.099Z,16.00
2019-02-19T07:15:23.358Z,16.67
2019-02-19T07:17:52.609Z,17.63
2019-02-19T07:20:21.825Z,19.40
2019-02-19T07:22:51.136Z,20.73
2019-02-19T07:25:20.401Z,15.13
2019-02-19T07:27:49.781Z,14.70
2019-02-19T07:30:19.135Z,20.17
2019-02-19T07:32:48.419Z,18.37
2019-02-19T07:35:17.782Z,19.60
2019-02-19T07:37:47.145Z,16.93
2019-02-19T07:40:17.515Z,21.73
2019-02-19T07:42:46.971Z,17.57
2019-02-19T07:45:16.229Z,18.03
2019-02-19T07:47:45.490Z,16.27
2019-02-19T07:50:14.772Z,19.03
2019-02-19T07:52:44.044Z,15.97
2019-02-19T07:55:13.228Z,16.60
2019-02-19T07:57:42.974Z,15.43
2019-02-19T08:00:12.377Z,18.60
2019-02-19T08:02:41.811Z,17.33
2019-02-19T08:05:11.264Z,16.93
2019-02-19T08:07:40.553Z,18.17
2019-02-19T08:10:10.170Z,15.57
2019-02-19T08:12:39.484Z,18.80
2019-02-19T08:15:09.299Z,17.43
2019-02-19T08:17:39.573Z,18.07
2019-02-19T08:20:15.351Z,15.23
2019-02-19T08:22:39.930Z,14.47
2019-02-19T08:25:09.203Z,16.53
2019-02-19T08:27:38.415Z,14.50
2019-02-19T08:30:08.170Z,18.00
2019-02-19T08:32:37.464Z,15.73
2019-02-19T08:35:06.763Z,15.30
2019-02-19T08:37:35.963Z,16.07
2019-02-19T08:40:05.247Z,16.33
2019-02-19T08:42:34.491Z,19.63
2019-02-19T08:45:03.868Z,15.80
2019-02-19T08:47:42.039Z,17.13
2019-02-19T08:50:04.090Z,23.17
2019-02-19T08:52:33.441Z,16.37
2019-02-19T08:55:02.765Z,21.30
2019-02-19T08:57:32.099Z,15.87
2019-02-19T09:00:01.398Z,16.97
2019-02-19T09:02:30.785Z,15.50
2019-02-19T09:05:00.007Z,18.53
2019-02-19T09:07:29.275Z,17.53
2019-02-19T09:09:58.481Z,17.17
2019-02-19T09:12:27.951Z,20.53
2019-02-19T09:14:57.286Z,17.97
2019-02-19T09:17:26.591Z,17.10
2019-02-19T09:19:55.810Z,18.97
2019-02-19T09:22:25.135Z,18.63
2019-02-19T09:24:54.343Z,19.47
2019-02-19T09:27:23.702Z,19.40
2019-02-19T09:29:53.006Z,16.77
2019-02-19T09:32:22.235Z,17.07
2019-02-19T09:34:52.698Z,17.53
2019-02-19T09:37:22.110Z,19.53
2019-02-19T09:39:51.340Z,24.83
2019-02-19T09:42:20.512Z,26.73
2019-02-19T09:44:49.738Z,18.93
2019-02-19T09:47:18.909Z,17.13
2019-02-19T09:49:48.198Z,19.37
2019-02-19T09:52:17.457Z,19.40
2019-02-19T09:54:46.831Z,15.80
2019-02-19T09:57:16.101Z,16.57
2019-02-19T09:59:45.451Z,17.43
2019-02-19T10:02:14.730Z,20.67
2019-02-19T10:04:44.019Z,20.10
2019-02-19T10:07:13.301Z,16.47
2019-02-19T10:09:42.688Z,17.70
2019-02-19T10:12:11.974Z,19.33
2019-02-19T10:14:41.277Z,17.20
2019-02-19T10:17:10.623Z,17.13
2019-02-19T10:19:39.936Z,17.87
2019-02-19T10:22:09.272Z,15.63
2019-02-19T10:24:38.544Z,14.27
2019-02-19T10:27:07.756Z,17.30
2019-02-19T10:29:37.080Z,17.37
2019-02-19T10:32:06.379Z,13.77
2019-02-19T10:34:35.718Z,20.23
2019-02-19T10:37:04.930Z,18.03
2019-02-19T10:39:34.116Z,15.37
2019-02-19T10:42:03.868Z,15.43
2019-02-19T10:44:33.373Z,15.33
2019-02-19T10:47:02.628Z,15.47
2019-02-19T10:49:31.890Z,15.70
2019-02-19T10:52:01.142Z,13.60
2019-02-19T10:54:30.327Z,15.73
2019-02-19T10:56:59.638Z,13.60
2019-02-19T10:59:28.943Z,15.37
2019-02-19T11:01:58.270Z,15.73
2019-02-19T11:04:27.588Z,19.93
2019-02-19T11:06:56.868Z,14.23
2019-02-19T11:09:26.130Z,13.00
2019-02-19T11:11:55.391Z,13.30
2019-02-19T11:14:24.717Z,15.57
2019-02-19T11:16:53.906Z,12.50
2019-02-19T11:19:23.088Z,12.07
2019-02-19T11:21:52.397Z,12.77
2019-02-19T11:24:21.827Z,11.97
2019-02-19T11:26:51.067Z,12.13
2019-02-19T11:29:20.735Z,11.67
2019-02-19T11:31:50.076Z,12.90
2019-02-19T11:34:19.385Z,14.10
2019-02-19T11:36:48.729Z,11.97
2019-02-19T11:39:18.024Z,11.53
2019-02-19T11:41:47.324Z,13.80
2019-02-19T11:44:16.714Z,12.80
2019-02-19T11:46:45.915Z,13.97
2019-02-19T11:49:15.186Z,13.83
2019-02-19T11:51:44.408Z,11.93
2019-02-19T11:54:13.765Z,16.73
2019-02-19T11:56:43.054Z,11.97
2019-02-19T11:59:12.320Z,10.50
2019-02-19T12:01:41.848Z,11.50
2019-02-19T12:04:11.194Z,10.33
2019-02-19T12:06:40.504Z,11.80
2019-02-19T12:09:09.722Z,13.83
2019-02-19T12:11:38.912Z,10.53
2019-02-19T12:14:08.198Z,11.23
2019-02-19T12:16:37.450Z,12.80
2019-02-19T12:19:06.695Z,13.43
2019-02-19T12:21:35.978Z,13.17
2019-02-19T12:24:05.215Z,13.60
2019-02-19T12:26:34.488Z,13.03
2019-02-19T12:29:03.775Z,10.93
2019-02-19T12:31:33.118Z,9.40
2019-02-19T12:34:02.598Z,8.97
2019-02-19T12:36:32.315Z,10.33
2019-02-19T12:39:02.702Z,10.40
2019-02-19T12:41:32.000Z,12.83
2019-02-19T12:44:01.268Z,10.90
2019-02-19T12:46:30.675Z,11.47
2019-02-19T12:48:59.952Z,11.20
2019-02-19T12:51:29.576Z,10.67
2019-02-19T12:53:58.836Z,13.20
2019-02-19T12:56:28.146Z,11.33
2019-02-19T12:58:57.410Z,12.50
2019-02-19T13:01:26.737Z,11.53
2019-02-19T13:03:56.026Z,10.40
2019-02-19T13:06:25.336Z,12.07
2019-02-19T13:08:54.612Z,9.67
2019-02-19T13:11:23.937Z,11.97
2019-02-19T13:13:53.185Z,13.93
2019-02-19T13:16:22.490Z,12.20
2019-02-19T13:18:51.690Z,19.20
2019-02-19T13:21:20.894Z,10.53
2019-02-19T13:23:50.168Z,20.93
2019-02-19T13:26:19.423Z,12.53
2019-02-19T13:28:48.625Z,9.97
2019-02-19T13:31:17.883Z,12.80
2019-02-19T13:33:47.214Z,10.63
2019-02-19T13:36:16.548Z,8.90
2019-02-19T13:38:45.903Z,11.77
2019-02-19T13:41:15.263Z,15.57
2019-02-19T13:43:44.676Z,11.43
2019-02-19T13:46:13.980Z,8.63
2019-02-19T13:48:43.268Z,8.67
2019-02-19T13:51:15.054Z,9.83
2019-02-19T13:53:57.937Z,9.43
2019-02-19T13:56:27.253Z,9.37
2019-02-19T13:58:56.468Z,10.10
2019-02-19T14:01:25.759Z,10.37
2019-02-19T14:03:55.031Z,13.60
2019-02-19T14:06:24.312Z,7.80
2019-02-19T14:08:53.610Z,11.13
2019-02-19T14:11:22.797Z,7.40
2019-02-19T14:14:14.803Z,12.30
2019-02-19T14:16:53.454Z,8.47
2019-02-19T14:19:37.460Z,8.57
2019-02-19T14:22:41.056Z,11.83
2019-02-19T14:25:38.142Z,15.40
2019-02-19T14:28:25.021Z,9.23
2019-02-19T14:31:25.430Z,8.70
2019-02-19T14:34:22.833Z,11.67
2019-02-19T14:37:09.996Z,9.07
2019-02-19T14:39:51.205Z,11.17
2019-02-19T14:42:45.442Z,9.60
2019-02-19T14:45:36.451Z,9.83
2019-02-19T14:48:23.371Z,12.20
2019-02-19T14:51:11.697Z,10.17
2019-02-19T14:53:52.536Z,9.07
2019-02-19T14:56:34.589Z,10.97
2019-02-19T14:59:34.870Z,13.07
2019-02-19T15:02:23.120Z,15.37
2019-02-19T15:05:20.654Z,11.27
2019-02-19T15:08:07.639Z,11.40
2019-02-19T15:11:14.375Z,12.07
2019-02-19T15:14:05.657Z,12.77
2019-02-19T15:16:47.249Z,11.10
2019-02-19T15:19:44.608Z,9.27
2019-02-19T15:22:23.136Z,10.87
2019-02-19T15:25:26.619Z,15.50
2019-02-19T15:28:23.962Z,12.40
2019-02-19T15:31:01.676Z,12.10
2019-02-19T15:33:52.779Z,12.07
2019-02-19T15:36:39.821Z,12.83
2019-02-19T15:39:34.106Z,9.77
2019-02-19T15:42:22.329Z,11.17
2019-02-19T15:44:59.771Z,13.70
2019-02-19T15:47:48.045Z,11.97
2019-02-19T15:50:28.282Z,12.33
2019-02-19T15:53:15.293Z,9.73
2019-02-19T15:56:03.647Z,14.00
2019-02-19T15:58:43.123Z,11.67
2019-02-19T16:01:30.301Z,9.77
2019-02-19T16:04:18.621Z,11.47
2019-02-19T16:07:00.708Z,12.90
2019-02-19T16:09:47.328Z,13.77
2019-02-19T16:12:30.859Z,14.60
2019-02-19T16:15:28.252Z,12.27
2019-02-19T16:18:04.712Z,16.57
2019-02-19T16:21:08.420Z,13.30
2019-02-19T16:23:58.118Z,13.80
2019-02-19T16:26:58.749Z,13.07
2019-02-19T16:29:59.060Z,14.37
2019-02-19T16:32:39.023Z,14.60
2019-02-19T16:35:33.204Z,12.53
2019-02-19T16:38:28.016Z,16.17
2019-02-19T16:41:28.529Z,14.27
2019-02-19T16:44:15.781Z,11.60
2019-02-19T16:47:10.409Z,12.53
2019-02-19T16:50:06.907Z,18.43
2019-02-19T16:52:50.253Z,15.70
2019-02-19T16:55:34.069Z,20.83
2019-02-19T16:58:14.731Z,15.33
2019-02-19T17:01:04.994Z,16.63
2019-02-19T17:03:52.510Z,17.43
2019-02-19T17:06:43.971Z,16.17
2019-02-19T17:09:24.679Z,18.83
2019-02-19T17:12:11.396Z,17.27
2019-02-19T17:15:09.077Z,20.60
2019-02-19T17:17:52.680Z,20.73
2019-02-19T17:20:41.006Z,18.77
2019-02-19T17:23:15.679Z,16.77
2019-02-19T17:26:03.914Z,18.73
2019-02-19T17:28:52.266Z,18.63
2019-02-19T17:31:31.324Z,22.07
2019-02-19T17:34:26.402Z,22.73
2019-02-19T17:37:18.024Z,20.83
2019-02-19T17:40:07.630Z,25.97
2019-02-19T17:42:58.700Z,20.47
2019-02-19T17:45:45.930Z,28.53
2019-02-19T17:48:43.279Z,80.10
2019-02-19T17:51:50.199Z,56.43
2019-02-19T17:54:30.725Z,39.47
2019-02-19T17:57:24.888Z,84.93
2019-02-19T18:00:15.924Z,69.10
2019-02-19T18:03:07.044Z,55.77
2019-02-19T18:05:46.298Z,24.73
2019-02-19T18:08:46.963Z,28.20
2019-02-19T18:11:35.212Z,32.30
2019-02-19T18:14:17.261Z,19.17
2019-02-19T18:17:14.682Z,23.87
2019-02-19T18:19:44.030Z,25.70
2019-02-19T18:22:13.308Z,26.47
2019-02-19T18:24:42.772Z,22.57
2019-02-19T18:27:12.109Z,23.60
2019-02-19T18:29:41.325Z,24.33
2019-02-19T18:32:10.628Z,17.77
2019-02-19T18:34:39.902Z,23.03
2019-02-19T18:37:09.179Z,17.73
2019-02-19T18:39:38.565Z,23.50
2019-02-19T18:42:07.795Z,22.23
2019-02-19T18:44:37.115Z,18.67
2019-02-19T18:47:06.325Z,18.07
2019-02-19T18:49:35.580Z,17.20
2019-02-19T18:52:04.940Z,18.17
2019-02-19T18:54:34.269Z,18.47
2019-02-19T18:57:03.604Z,18.53
2019-02-19T18:59:33.048Z,17.90
2019-02-19T19:02:02.472Z,18.20
2019-02-19T19:04:31.940Z,20.93
2019-02-19T19:07:01.227Z,15.73
2019-02-19T19:09:30.504Z,16.40
2019-02-19T19:11:59.943Z,19.57
2019-02-19T19:14:29.310Z,16.07
2019-02-19T19:16:58.701Z,20.83
2019-02-19T19:19:28.058Z,17.87
2019-02-19T19:21:57.545Z,16.20
2019-02-19T19:24:26.918Z,23.17
2019-02-19T19:26:56.461Z,19.60
2019-02-19T19:29:25.868Z,19.07
2019-02-19T19:32:14.299Z,20.10
2019-02-19T19:34:43.859Z,19.30
2019-02-19T19:37:13.847Z,18.77
2019-02-19T19:39:43.200Z,21.03
2019-02-19T19:42:12.714Z,17.53
2019-02-19T19:44:42.099Z,19.63
2019-02-19T19:47:11.578Z,19.97
2019-02-19T19:49:41.089Z,24.33
2019-02-19T19:52:10.824Z,18.47
2019-02-19T19:54:40.533Z,21.57
2019-02-19T19:57:10.108Z,20.23
2019-02-19T19:59:39.529Z,20.27
2019-02-19T20:02:08.931Z,18.53
2019-02-19T20:04:38.296Z,25.53
2019-02-19T20:07:07.717Z,25.43
2019-02-19T20:09:37.179Z,23.33
2019-02-19T20:12:06.633Z,23.50
2019-02-19T20:14:36.094Z,31.03
2019-02-19T20:17:05.501Z,49.03
2019-02-19T20:19:34.860Z,23.63
2019-02-19T20:22:04.249Z,36.03
2019-02-19T20:24:33.683Z,22.73
2019-02-19T20:27:03.071Z,151.70
2019-02-19T20:29:32.425Z,20.60
2019-02-19T20:32:01.857Z,25.93
2019-02-19T20:34:31.231Z,22.83
2019-02-19T20:37:00.572Z,59.00
2019-02-19T20:39:30.139Z,61.00
2019-02-19T20:41:59.517Z,48.30
2019-02-19T20:44:28.924Z,95.60
2019-02-19T20:46:58.296Z,63.80
2019-02-19T20:49:27.609Z,18.27
2019-02-19T20:51:56.990Z,20.03
2019-02-19T20:54:26.331Z,20.47
2019-02-19T20:56:55.665Z,20.57
2019-02-19T20:59:25.029Z,22.70
2019-02-19T21:01:54.571Z,24.37
2019-02-19T21:04:23.960Z,21.93
2019-02-19T21:06:53.399Z,23.70
2019-02-19T21:09:22.818Z,19.27
2019-02-19T21:11:52.219Z,21.33
2019-02-19T21:14:21.544Z,22.23
2019-02-19T21:16:51.027Z,22.40
2019-02-19T21:19:20.507Z,21.00
2019-02-19T21:21:49.870Z,22.23
2019-02-19T21:24:19.287Z,21.90
2019-02-19T21:26:48.667Z,21.10
2019-02-19T21:29:18.373Z,32.70
2019-02-19T21:31:47.712Z,21.93
2019-02-19T21:34:17.016Z,23.27
2019-02-19T21:36:46.521Z,19.57
2019-02-19T21:39:16.063Z,22.87
2019-02-19T21:41:45.571Z,20.67
2019-02-19T21:44:15.263Z,20.30
2019-02-19T21:46:44.736Z,24.57
2019-02-19T21:49:14.073Z,21.13
2019-02-19T21:51:43.636Z,20.10
2019-02-19T21:54:12.892Z,21.67
2019-02-19T21:56:42.608Z,21.43
2019-02-19T21:59:12.256Z,21.77
2019-02-19T22:01:41.804Z,22.03
2019-02-19T22:04:11.122Z,19.63
2019-02-19T22:06:40.552Z,24.27
2019-02-19T22:09:09.824Z,22.60
2019-02-19T22:11:39.216Z,23.53
2019-02-19T22:14:08.625Z,22.07
2019-02-19T22:16:37.978Z,22.33
2019-02-19T22:19:07.277Z,22.93
2019-02-19T22:21:50.406Z,23.13
2019-02-19T22:24:35.172Z,25.20
2019-02-19T22:27:06.396Z,23.87
2019-02-19T22:29:36.143Z,24.63
2019-02-19T22:32:05.962Z,24.37
2019-02-19T22:34:36.599Z,22.30
2019-02-19T22:37:06.492Z,24.33
2019-02-19T22:39:35.855Z,24.60
2019-02-19T22:42:05.590Z,27.80
2019-02-19T22:44:35.498Z,24.23
2019-02-19T22:47:04.901Z,28.73
2019-02-19T22:49:34.245Z,24.03
2019-02-19T22:52:11.948Z,24.17
2019-02-19T22:55:06.035Z,24.27
2019-02-19T22:57:35.584Z,22.57
2019-02-19T23:00:08.161Z,25.30
2019-02-19T23:02:37.625Z,23.50
2019-02-19T23:05:07.226Z,22.60
2019-02-19T23:07:36.690Z,23.60
2019-02-19T23:10:06.676Z,23.00
2019-02-19T23:12:36.008Z,24.13
2019-02-19T23:15:05.826Z,20.07
2019-02-19T23:17:35.123Z,21.83
2019-02-19T23:20:05.049Z,21.57
2019-02-19T23:22:34.638Z,21.67
2019-02-19T23:25:04.211Z,21.40
2019-02-19T23:27:33.555Z,22.87
2019-02-19T23:30:02.943Z,18.97
2019-02-19T23:32:32.240Z,24.20
2019-02-19T23:35:23.282Z,20.47
2019-02-19T23:37:52.522Z,19.70
2019-02-19T23:40:21.882Z,20.00
2019-02-19T23:42:51.363Z,23.93
2019-02-19T23:45:20.622Z,22.40
2019-02-19T23:47:49.911Z,22.80
2019-02-19T23:50:19.295Z,27.23
2019-02-19T23:52:48.608Z,22.20
2019-02-19T23:55:17.956Z,24.03
2019-02-19T23:57:47.316Z,22.47
